createdAt,value
2023-01-26T00:01:19.892Z,29.50
2023-01-26T00:03:48.704Z,26.00
2023-01-26T00:06:18.972Z,22.50
2023-01-26T00:08:48.375Z,28.25
2023-01-26T00:11:18.633Z,13.67
2023-01-26T00:13:45.583Z,18.67
2023-01-26T00:16:15.154Z,24.00
2023-01-26T00:18:43.665Z,20.33
2023-01-26T00:21:16.132Z,22.25
2023-01-26T00:23:43.873Z,22.00
2023-01-26T00:26:15.193Z,27.50
2023-01-26T00:28:42.071Z,30.25
2023-01-26T00:31:13.545Z,28.25
2023-01-26T00:33:40.596Z,24.25
2023-01-26T00:36:12.418Z,21.75
2023-01-26T00:38:41.464Z,26.50
2023-01-26T00:41:09.567Z,27.50
2023-01-26T00:43:36.344Z,21.25
2023-01-26T00:46:03.307Z,30.50
2023-01-26T00:48:30.034Z,27.25
2023-01-26T00:50:56.887Z,27.75
2023-01-26T00:53:25.034Z,26.00
2023-01-26T00:55:53.735Z,34.00
2023-01-26T00:58:20.525Z,18.75
2023-01-26T01:00:47.523Z,26.00
2023-01-26T01:03:14.325Z,28.00
2023-01-26T01:05:44.512Z,29.00
2023-01-26T01:08:12.579Z,25.50
2023-01-26T01:10:40.642Z,28.00
2023-01-26T01:13:07.679Z,26.00
2023-01-26T01:15:34.535Z,24.50
2023-01-26T01:18:01.337Z,25.50
2023-01-26T01:20:29.747Z,21.33
2023-01-26T01:22:56.486Z,19.67
2023-01-26T01:25:23.293Z,23.67
2023-01-26T01:27:51.953Z,24.00
2023-01-26T01:30:19.121Z,33.00
2023-01-26T01:32:45.907Z,28.00
2023-01-26T01:35:12.732Z,24.67
2023-01-26T01:37:39.526Z,23.00
2023-01-26T01:40:12.094Z,16.33
2023-01-26T01:42:45.740Z,22.33
2023-01-26T01:45:42.534Z,20.33
2023-01-26T01:48:20.549Z,31.67
2023-01-26T01:50:52.006Z,26.67
2023-01-26T01:53:26.311Z,22.33
2023-01-26T01:55:58.868Z,30.00
2023-01-26T01:58:29.519Z,25.67
2023-01-26T02:00:58.298Z,24.67
2023-01-26T02:03:28.575Z,19.67
2023-01-26T02:06:03.744Z,23.00
2023-01-26T02:08:36.235Z,18.00
2023-01-26T02:11:12.580Z,14.67
2023-01-26T02:13:42.227Z,18.00
2023-01-26T02:16:10.765Z,17.00
2023-01-26T02:18:38.264Z,25.33
2023-01-26T02:21:09.727Z,26.33
2023-01-26T02:23:54.205Z,24.25
2023-01-26T02:26:26.084Z,26.67
2023-01-26T02:28:53.957Z,19.00
2023-01-26T02:31:24.033Z,18.00
2023-01-26T02:33:51.342Z,26.00
2023-01-26T02:36:22.129Z,34.00
2023-01-26T02:39:04.063Z,32.33
2023-01-26T02:41:32.557Z,27.33
2023-01-26T02:43:59.367Z,35.67
2023-01-26T02:46:26.219Z,51.00
2023-01-26T02:48:53.204Z,60.00
2023-01-26T02:51:19.936Z,54.67
2023-01-26T02:53:47.679Z,50.67
2023-01-26T02:56:14.498Z,46.67
2023-01-26T02:58:42.777Z,49.33
2023-01-26T03:01:10.259Z,55.67
2023-01-26T03:03:47.437Z,51.67
2023-01-26T03:06:15.491Z,54.67
2023-01-26T03:08:42.614Z,58.25
2023-01-26T03:11:10.031Z,51.67
2023-01-26T03:13:37.452Z,31.67
2023-01-26T03:16:08.955Z,35.33
2023-01-26T03:18:36.292Z,30.33
2023-01-26T03:21:07.311Z,30.67
2023-01-26T03:23:34.883Z,27.33
2023-01-26T03:26:02.609Z,25.33
2023-01-26T03:28:32.756Z,32.33
2023-01-26T03:31:00.083Z,30.00
2023-01-26T03:33:30.027Z,24.00
2023-01-26T03:35:56.777Z,23.67
2023-01-26T03:38:24.241Z,25.33
2023-01-26T03:40:58.081Z,25.00
2023-01-26T03:43:24.911Z,21.67
2023-01-26T03:45:51.649Z,22.67
2023-01-26T03:48:20.497Z,16.33
2023-01-26T03:50:48.609Z,21.33
2023-01-26T03:53:17.981Z,18.25
2023-01-26T03:55:44.793Z,22.00
2023-01-26T03:58:11.888Z,21.67
2023-01-26T04:00:38.683Z,28.33
2023-01-26T04:03:05.411Z,22.75
2023-01-26T04:05:32.327Z,24.00
2023-01-26T04:08:04.132Z,18.25
2023-01-26T04:10:30.979Z,21.25
2023-01-26T04:13:19.421Z,17.25
2023-01-26T04:15:53.056Z,14.75
2023-01-26T04:18:20.355Z,22.00
2023-01-26T04:20:47.178Z,16.75
2023-01-26T04:23:19.971Z,15.67
2023-01-26T04:25:48.893Z,12.33
2023-01-26T04:28:16.196Z,17.67
2023-01-26T04:30:43.645Z,16.67
2023-01-26T04:33:11.120Z,16.00
2023-01-26T04:35:37.953Z,16.75
2023-01-26T04:38:05.068Z,16.67
2023-01-26T04:40:33.450Z,15.67
2023-01-26T04:43:00.395Z,17.67
2023-01-26T04:45:27.859Z,16.00
2023-01-26T04:47:54.917Z,21.75
2023-01-26T04:50:21.749Z,21.75
2023-01-26T04:52:48.609Z,20.50
2023-01-26T04:55:16.843Z,17.00
2023-01-26T04:57:45.381Z,17.00
2023-01-26T05:00:13.701Z,16.33
2023-01-26T05:02:41.300Z,16.33
2023-01-26T05:05:09.882Z,21.00
2023-01-26T05:07:37.019Z,20.00
2023-01-26T05:10:05.447Z,23.67
2023-01-26T05:13:00.161Z,25.67
2023-01-26T05:15:41.471Z,25.33
2023-01-26T05:18:13.251Z,32.67
2023-01-26T05:20:49.568Z,27.33
2023-01-26T05:23:18.544Z,23.33
2023-01-26T05:26:09.611Z,18.75
2023-01-26T05:29:04.123Z,25.00
2023-01-26T05:31:31.631Z,20.75
2023-01-26T05:33:58.618Z,11.00
2023-01-26T05:36:25.595Z,11.25
2023-01-26T05:38:52.553Z,13.75
2023-01-26T05:41:23.695Z,9.00
2023-01-26T05:44:19.197Z,14.50
2023-01-26T05:46:51.248Z,15.25
2023-01-26T05:49:18.176Z,13.50
2023-01-26T05:51:45.195Z,13.25
2023-01-26T05:54:13.711Z,12.25
2023-01-26T05:56:40.509Z,16.00
2023-01-26T05:59:08.190Z,12.25
2023-01-26T06:01:36.505Z,12.00
2023-01-26T06:04:07.306Z,7.75
2023-01-26T06:06:44.070Z,11.00
2023-01-26T06:09:23.463Z,6.00
2023-01-26T06:11:51.231Z,12.25
2023-01-26T06:14:43.006Z,6.50
2023-01-26T06:17:13.442Z,13.00
2023-01-26T06:19:40.437Z,13.75
2023-01-26T06:22:08.813Z,18.50
2023-01-26T06:24:37.077Z,14.00
2023-01-26T06:27:07.035Z,13.00
2023-01-26T06:29:34.219Z,14.50
2023-01-26T06:32:01.401Z,12.50
2023-01-26T06:34:29.785Z,12.50
2023-01-26T06:36:56.677Z,10.75
2023-01-26T06:39:28.570Z,10.00
2023-01-26T06:41:56.467Z,15.25
2023-01-26T06:44:23.419Z,12.00
2023-01-26T06:46:50.208Z,16.75
2023-01-26T06:49:17.152Z,14.25
2023-01-26T06:52:02.860Z,19.00
2023-01-26T06:54:48.946Z,12.75
2023-01-26T06:57:32.907Z,24.33
2023-01-26T07:00:22.340Z,29.67
2023-01-26T07:03:21.664Z,27.00
2023-01-26T07:05:48.441Z,21.00
2023-01-26T07:08:16.662Z,22.33
2023-01-26T07:10:43.642Z,27.33
2023-01-26T07:13:10.609Z,34.00
2023-01-26T07:15:37.513Z,33.00
2023-01-26T07:18:04.286Z,42.00
2023-01-26T07:20:31.406Z,37.67
2023-01-26T07:22:59.776Z,41.67
2023-01-26T07:25:28.433Z,35.67
2023-01-26T07:27:56.507Z,33.67
2023-01-26T07:30:23.754Z,44.00
2023-01-26T07:32:50.735Z,33.33
2023-01-26T07:35:18.260Z,40.00
2023-01-26T07:37:45.121Z,45.67
2023-01-26T07:40:13.265Z,46.00
2023-01-26T07:42:41.756Z,49.33
2023-01-26T07:45:18.839Z,51.67
2023-01-26T07:47:45.615Z,42.33
2023-01-26T07:50:12.652Z,54.67
2023-01-26T07:52:39.565Z,46.33
2023-01-26T07:55:07.253Z,45.67
2023-01-26T07:57:34.365Z,41.33
2023-01-26T08:00:03.358Z,32.00
2023-01-26T08:02:38.808Z,23.00
2023-01-26T08:05:06.800Z,19.67
2023-01-26T08:07:33.782Z,19.00
2023-01-26T08:10:01.160Z,14.25
2023-01-26T08:12:28.326Z,16.25
2023-01-26T08:14:55.219Z,15.25
2023-01-26T08:17:23.532Z,20.33
2023-01-26T08:19:50.606Z,23.67
2023-01-26T08:22:17.474Z,24.00
2023-01-26T08:24:45.411Z,29.33
2023-01-26T08:27:12.261Z,21.33
2023-01-26T08:29:39.334Z,22.00
2023-01-26T08:32:06.654Z,19.67
2023-01-26T08:34:34.941Z,21.00
2023-01-26T08:37:03.184Z,17.75
2023-01-26T08:39:30.252Z,19.75
2023-01-26T08:41:57.041Z,15.00
2023-01-26T08:44:24.062Z,17.50
2023-01-26T08:46:51.092Z,16.50
2023-01-26T08:49:17.832Z,13.50
2023-01-26T08:51:46.005Z,16.00
2023-01-26T08:54:12.822Z,21.00
2023-01-26T08:56:39.645Z,18.00
2023-01-26T08:59:06.513Z,25.33
2023-01-26T09:01:33.728Z,22.75
2023-01-26T09:04:00.477Z,17.50
2023-01-26T09:06:27.270Z,22.50
2023-01-26T09:08:55.381Z,18.00
2023-01-26T09:11:22.441Z,13.33
2023-01-26T09:13:50.316Z,17.67
2023-01-26T09:16:20.210Z,13.75
2023-01-26T09:18:49.492Z,15.67
2023-01-26T09:21:16.757Z,19.00
2023-01-26T09:23:44.220Z,17.00
2023-01-26T09:26:12.623Z,18.33
2023-01-26T09:28:39.466Z,16.75
2023-01-26T09:31:09.773Z,16.50
2023-01-26T09:33:37.633Z,20.00
2023-01-26T09:36:07.393Z,18.67
2023-01-26T09:38:34.401Z,17.33
2023-01-26T09:41:14.426Z,16.75
2023-01-26T09:43:47.819Z,17.00
2023-01-26T09:46:23.047Z,21.33
2023-01-26T09:49:05.109Z,12.67
2023-01-26T09:51:37.514Z,21.67
2023-01-26T09:54:19.243Z,17.75
2023-01-26T09:56:46.080Z,20.25
2023-01-26T09:59:29.775Z,15.67
2023-01-26T10:02:16.441Z,13.00
2023-01-26T10:04:51.256Z,13.25
2023-01-26T10:07:18.854Z,17.75
2023-01-26T10:09:53.397Z,12.75
2023-01-26T10:12:28.318Z,15.25
2023-01-26T10:15:04.730Z,16.75
2023-01-26T10:17:37.325Z,13.25
2023-01-26T10:20:17.896Z,13.25
2023-01-26T10:22:49.213Z,21.00
2023-01-26T10:25:19.337Z,21.00
2023-01-26T10:27:46.822Z,26.33
2023-01-26T10:30:18.727Z,40.00
2023-01-26T10:32:51.987Z,21.33
2023-01-26T10:35:22.959Z,22.67
2023-01-26T10:37:51.327Z,20.00
2023-01-26T10:40:19.428Z,21.67
2023-01-26T10:42:56.190Z,20.00
2023-01-26T10:45:44.293Z,18.75
2023-01-26T10:48:20.608Z,20.67
2023-01-26T10:50:48.462Z,21.00
2023-01-26T10:53:22.230Z,14.75
2023-01-26T10:56:01.568Z,14.50
2023-01-26T10:58:47.238Z,14.50
2023-01-26T11:01:18.860Z,12.25
2023-01-26T11:04:04.739Z,15.00
2023-01-26T11:06:32.621Z,14.75
2023-01-26T11:09:16.505Z,13.50
2023-01-26T11:11:57.965Z,15.33
2023-01-26T11:14:24.795Z,18.25
2023-01-26T11:17:00.008Z,23.67
2023-01-26T11:20:05.386Z,22.00
2023-01-26T11:22:46.450Z,24.33
2023-01-26T11:25:25.875Z,20.67
2023-01-26T11:28:14.392Z,17.67
2023-01-26T11:31:16.380Z,12.75
2023-01-26T11:34:03.895Z,12.00
2023-01-26T11:36:48.542Z,10.50
2023-01-26T11:39:28.400Z,15.75
2023-01-26T11:42:20.882Z,11.25
2023-01-26T11:45:09.687Z,10.00
2023-01-26T11:47:58.749Z,12.50
2023-01-26T11:50:37.519Z,16.50
2023-01-26T11:53:35.836Z,20.50
2023-01-26T11:56:31.735Z,16.00
2023-01-26T11:59:10.576Z,17.25
2023-01-26T12:01:43.874Z,14.75
2023-01-26T12:04:18.773Z,17.25
2023-01-26T12:06:54.693Z,16.50
2023-01-26T12:09:30.617Z,16.00
2023-01-26T12:12:04.831Z,15.00
2023-01-26T12:14:40.337Z,15.00
2023-01-26T12:17:33.526Z,18.50
2023-01-26T12:20:21.341Z,16.75
2023-01-26T12:23:00.466Z,17.25
2023-01-26T12:25:34.351Z,20.25
2023-01-26T12:28:18.208Z,14.75
2023-01-26T12:30:59.302Z,13.75
2023-01-26T12:33:26.479Z,14.75
2023-01-26T12:36:27.765Z,16.50
2023-01-26T12:39:12.748Z,15.25
2023-01-26T12:42:06.938Z,24.25
2023-01-26T12:44:40.766Z,21.00
2023-01-26T12:47:19.716Z,15.75
2023-01-26T12:49:58.158Z,18.25
2023-01-26T12:52:34.057Z,23.00
2023-01-26T12:55:15.925Z,21.25
2023-01-26T12:57:51.577Z,13.50
2023-01-26T13:00:23.803Z,19.00
2023-01-26T13:02:57.124Z,15.50
2023-01-26T13:05:31.327Z,21.75
2023-01-26T13:07:58.478Z,24.75
2023-01-26T13:10:45.953Z,21.25
2023-01-26T13:13:31.920Z,19.50
2023-01-26T13:16:34.115Z,15.00
2023-01-26T13:19:02.829Z,18.50
2023-01-26T13:21:44.669Z,21.50
2023-01-26T13:24:42.860Z,16.67
2023-01-26T13:27:40.546Z,15.75
2023-01-26T13:30:32.864Z,14.33
2023-01-26T13:33:16.606Z,14.00
2023-01-26T13:35:45.727Z,22.75
2023-01-26T13:38:30.409Z,22.00
2023-01-26T13:40:57.501Z,21.67
2023-01-26T13:43:37.061Z,28.00
2023-01-26T13:46:17.769Z,51.67
2023-01-26T13:48:48.045Z,38.33
2023-01-26T13:51:19.947Z,37.67
2023-01-26T13:54:00.369Z,28.33
2023-01-26T13:56:31.470Z,44.33
2023-01-26T13:59:20.890Z,24.67
2023-01-26T14:01:50.279Z,20.00
2023-01-26T14:04:22.187Z,12.25
2023-01-26T14:06:56.488Z,17.75
2023-01-26T14:09:28.124Z,16.75
2023-01-26T14:12:00.569Z,17.75
2023-01-26T14:14:33.681Z,15.75
2023-01-26T14:17:27.165Z,14.00
2023-01-26T14:19:54.484Z,15.00
2023-01-26T14:22:22.559Z,12.25
2023-01-26T14:24:52.603Z,21.00
2023-01-26T14:27:35.069Z,19.50
2023-01-26T14:30:21.373Z,24.25
2023-01-26T14:32:49.234Z,19.00
2023-01-26T14:35:22.671Z,18.67
2023-01-26T14:37:50.131Z,23.00
2023-01-26T14:40:21.478Z,25.33
2023-01-26T14:42:52.428Z,22.33
2023-01-26T14:45:29.778Z,25.67
2023-01-26T14:48:01.305Z,26.33
2023-01-26T14:50:30.087Z,8.00
2023-01-26T14:52:57.720Z,23.00
2023-01-26T14:55:29.351Z,19.00
2023-01-26T14:57:58.180Z,18.00
2023-01-26T15:00:31.099Z,23.00
2023-01-26T15:03:01.669Z,23.00
2023-01-26T15:05:35.045Z,13.67
2023-01-26T15:08:05.181Z,15.67
2023-01-26T15:10:39.843Z,15.00
2023-01-26T15:13:20.867Z,19.25
2023-01-26T15:16:05.012Z,16.25
2023-01-26T15:18:33.854Z,19.00
2023-01-26T15:21:12.543Z,20.75
2023-01-26T15:23:43.845Z,24.00
2023-01-26T15:26:25.722Z,22.25
2023-01-26T15:28:56.204Z,16.50
2023-01-26T15:31:32.039Z,13.75
2023-01-26T15:33:59.864Z,11.75
2023-01-26T15:36:46.123Z,13.00
2023-01-26T15:39:15.574Z,11.25
2023-01-26T15:41:44.546Z,8.67
2023-01-26T15:44:16.020Z,12.50
2023-01-26T15:46:44.961Z,12.00
2023-01-26T15:49:12.366Z,13.00
2023-01-26T15:51:39.778Z,14.00
2023-01-26T15:54:10.893Z,14.25
2023-01-26T15:56:37.673Z,16.00
2023-01-26T15:59:04.642Z,12.00
2023-01-26T16:01:31.979Z,9.50
2023-01-26T16:04:00.214Z,14.00
2023-01-26T16:06:29.361Z,12.67
2023-01-26T16:08:57.303Z,17.00
2023-01-26T16:11:30.207Z,20.33
2023-01-26T16:14:03.367Z,27.67
2023-01-26T16:16:32.072Z,26.00
2023-01-26T16:19:00.802Z,22.67
2023-01-26T16:21:33.557Z,29.33
2023-01-26T16:24:01.177Z,53.33
2023-01-26T16:26:29.236Z,56.33
2023-01-26T16:28:56.949Z,51.67
2023-01-26T16:31:26.940Z,50.00
2023-01-26T16:33:53.868Z,58.33
2023-01-26T16:36:22.755Z,60.67
2023-01-26T16:38:50.081Z,52.67
2023-01-26T16:41:24.864Z,46.67
2023-01-26T16:43:55.128Z,52.00
2023-01-26T16:46:22.548Z,54.67
2023-01-26T16:48:49.642Z,58.00
2023-01-26T16:51:25.161Z,56.00
2023-01-26T16:53:52.940Z,40.00
2023-01-26T16:56:20.680Z,30.67
2023-01-26T16:58:47.525Z,32.33
2023-01-26T17:01:23.012Z,31.00
2023-01-26T17:03:51.160Z,31.67
2023-01-26T17:06:19.689Z,47.67
2023-01-26T17:08:48.541Z,53.33
2023-01-26T17:11:19.413Z,57.00
2023-01-26T17:13:47.166Z,57.33
2023-01-26T17:16:16.963Z,54.67
2023-01-26T17:18:44.320Z,62.00
2023-01-26T17:21:11.913Z,57.00
2023-01-26T17:23:39.093Z,55.00
2023-01-26T17:26:08.803Z,49.33
2023-01-26T17:28:35.584Z,54.33
2023-01-26T17:31:08.099Z,55.67
2023-01-26T17:33:34.864Z,51.00
2023-01-26T17:36:04.332Z,65.50
2023-01-26T17:38:31.502Z,58.75
2023-01-26T17:40:59.639Z,60.67
2023-01-26T17:43:28.374Z,46.67
2023-01-26T17:46:03.728Z,53.00
2023-01-26T17:48:32.161Z,57.33
2023-01-26T17:50:59.404Z,53.67
2023-01-26T17:53:26.211Z,53.00
2023-01-26T17:55:53.111Z,55.00
2023-01-26T17:58:19.866Z,60.33
2023-01-26T18:00:48.128Z,60.00
2023-01-26T18:03:14.989Z,66.00
2023-01-26T18:05:50.475Z,42.67
2023-01-26T18:08:17.577Z,34.67
2023-01-26T18:10:44.387Z,35.67
2023-01-26T18:13:11.158Z,33.67
2023-01-26T18:15:38.427Z,27.67
2023-01-26T18:18:06.950Z,30.67
2023-01-26T18:20:33.933Z,33.00
2023-01-26T18:23:00.862Z,31.67
2023-01-26T18:25:27.852Z,30.00
2023-01-26T18:27:54.947Z,37.33
2023-01-26T18:30:22.165Z,33.00
2023-01-26T18:32:48.989Z,29.00
2023-01-26T18:35:17.290Z,29.67
2023-01-26T18:37:44.175Z,30.67
2023-01-26T18:40:12.482Z,31.00
2023-01-26T18:42:39.720Z,29.33
2023-01-26T18:45:08.244Z,30.00
2023-01-26T18:47:35.407Z,29.33
2023-01-26T18:50:02.414Z,24.33
2023-01-26T18:52:31.141Z,27.33
2023-01-26T18:54:58.014Z,39.00
2023-01-26T18:57:24.947Z,25.67
2023-01-26T18:59:51.820Z,25.33
2023-01-26T19:02:18.679Z,27.67
2023-01-26T19:04:45.556Z,26.33
2023-01-26T19:07:12.425Z,36.67
2023-01-26T19:09:40.896Z,30.67
2023-01-26T19:12:07.935Z,29.33
2023-01-26T19:14:34.875Z,28.67
2023-01-26T19:17:02.047Z,21.00
2023-01-26T19:19:29.139Z,17.00
2023-01-26T19:21:56.136Z,17.67
2023-01-26T19:24:23.318Z,20.00
2023-01-26T19:26:51.722Z,19.67
2023-01-26T19:29:18.686Z,22.67
2023-01-26T19:31:45.755Z,20.33
2023-01-26T19:34:14.488Z,15.67
2023-01-26T19:36:41.580Z,29.33
2023-01-26T19:39:08.839Z,25.67
2023-01-26T19:41:35.939Z,21.67
2023-01-26T19:44:04.318Z,24.33
2023-01-26T19:46:33.523Z,27.33
2023-01-26T19:49:04.917Z,14.33
2023-01-26T19:51:32.531Z,28.00
2023-01-26T19:53:59.558Z,20.00
2023-01-26T19:56:29.352Z,15.33
2023-01-26T19:58:59.267Z,20.33
2023-01-26T20:01:30.410Z,21.00
2023-01-26T20:04:00.330Z,20.67
2023-01-26T20:06:30.189Z,18.33
2023-01-26T20:08:57.789Z,24.67
2023-01-26T20:11:26.918Z,28.33
2023-01-26T20:13:55.489Z,36.00
2023-01-26T20:16:22.768Z,51.67
2023-01-26T20:18:51.015Z,59.00
2023-01-26T20:21:17.862Z,53.67
2023-01-26T20:23:55.732Z,54.00
2023-01-26T20:26:25.993Z,42.00
2023-01-26T20:28:53.732Z,43.33
2023-01-26T20:31:24.456Z,51.00
2023-01-26T20:33:54.020Z,66.00
2023-01-26T20:36:24.112Z,67.00
2023-01-26T20:38:51.266Z,65.50
2023-01-26T20:41:21.484Z,67.25
2023-01-26T20:43:59.053Z,51.67
2023-01-26T20:46:28.124Z,56.00
2023-01-26T20:48:57.158Z,55.00
2023-01-26T20:51:28.433Z,58.00
2023-01-26T20:53:55.907Z,54.33
2023-01-26T20:56:23.524Z,46.00
2023-01-26T20:58:53.609Z,64.75
2023-01-26T21:01:22.883Z,46.67
2023-01-26T21:03:50.310Z,36.33
2023-01-26T21:06:21.672Z,35.00
2023-01-26T21:08:52.378Z,41.33
2023-01-26T21:11:20.664Z,36.67
2023-01-26T21:13:47.477Z,52.67
2023-01-26T21:16:16.858Z,41.67
2023-01-26T21:18:45.064Z,40.33
2023-01-26T21:21:14.398Z,29.33
2023-01-26T21:23:42.485Z,35.33
2023-01-26T21:26:16.761Z,33.00
2023-01-26T21:28:44.578Z,33.67
2023-01-26T21:31:14.145Z,32.33
2023-01-26T21:33:47.844Z,39.00
2023-01-26T21:36:18.107Z,32.67
2023-01-26T21:38:49.176Z,33.00
2023-01-26T21:41:19.680Z,38.33
2023-01-26T21:43:46.396Z,29.33
2023-01-26T21:46:13.189Z,41.33
2023-01-26T21:48:39.992Z,38.33
2023-01-26T21:51:06.935Z,38.00
2023-01-26T21:53:33.962Z,29.00
2023-01-26T21:56:02.053Z,36.33
2023-01-26T21:58:28.813Z,32.00
2023-01-26T22:01:05.915Z,33.33
2023-01-26T22:03:32.840Z,31.00
2023-01-26T22:06:00.034Z,35.33
2023-01-26T22:08:26.800Z,30.00
2023-01-26T22:10:53.980Z,34.33
2023-01-26T22:13:23.155Z,31.33
2023-01-26T22:15:51.039Z,33.00
2023-01-26T22:18:18.396Z,32.33
2023-01-26T22:20:45.411Z,31.67
2023-01-26T22:23:12.200Z,30.33
2023-01-26T22:25:40.610Z,31.67
2023-01-26T22:28:08.065Z,33.00
2023-01-26T22:30:36.302Z,35.00
2023-01-26T22:33:03.550Z,33.00
2023-01-26T22:35:32.194Z,40.33
2023-01-26T22:38:00.048Z,39.67
2023-01-26T22:40:26.878Z,34.33
2023-01-26T22:42:54.009Z,34.33
2023-01-26T22:45:20.812Z,35.67
2023-01-26T22:47:49.159Z,33.67
2023-01-26T22:50:17.576Z,36.33
2023-01-26T22:52:44.319Z,26.33
2023-01-26T22:55:11.163Z,31.00
2023-01-26T22:57:37.919Z,32.00
2023-01-26T23:00:07.153Z,28.33
2023-01-26T23:02:34.110Z,28.33
2023-01-26T23:05:02.176Z,26.00
2023-01-26T23:07:29.086Z,32.00
2023-01-26T23:09:55.837Z,25.33
2023-01-26T23:12:22.738Z,23.00
2023-01-26T23:14:49.616Z,24.33
2023-01-26T23:17:16.481Z,25.33
2023-01-26T23:19:43.917Z,25.67
2023-01-26T23:22:12.090Z,24.00
2023-01-26T23:24:38.883Z,31.67
2023-01-26T23:27:05.724Z,30.00
2023-01-26T23:29:32.781Z,25.00
2023-01-26T23:31:59.605Z,23.33
2023-01-26T23:34:26.499Z,15.33
2023-01-26T23:36:53.228Z,18.00
2023-01-26T23:39:21.333Z,16.33
2023-01-26T23:41:48.130Z,13.75
2023-01-26T23:44:15.186Z,17.33
2023-01-26T23:46:42.043Z,19.00
2023-01-26T23:49:09.207Z,20.00
2023-01-26T23:51:36.346Z,24.33
2023-01-26T23:54:03.238Z,22.67
2023-01-26T23:56:31.446Z,22.00
2023-01-26T23:58:58.234Z,15.00
